Main page
METAR-TAF:

METAR-TAF

Airports :

Cairo International Airport

Cairo, Egypt

latitude: 30-08N, longitude: 031-24E, elevation: 64 m

Current weather observation

The report was made 40 minutes ago, at 08:30 UTC
Wind 6 kt from the East
Temperature 30°C
Humidity 52%
Pressure 1013 hPa
Visibility 10 km or more
Scattered clouds at a height of 2500 ft

METAR: HECA 210830Z 08006KT 9999 SCT025 30/19 Q1013 NOSIG

Time: 11:10 (09:10 UTC)

Forecast

The report was made 4 hours and 10 minutes ago, at 05:00 UTC
Forecast valid from 21 at 06 UTC to 22 at 12 UTC
Wind 10 kt from the North/Northeast
Visibility 10 km or more
no clouds below 1500 m and no cumulonimbus
Temporary
from 21 at 06 UTC to 21 at 09 UTC
Wind 3 kt from variable directions
Visibility: 6000 m
Scattered clouds at a height of 2500 ft

TAF: HECA 210500Z 2106/2212 02010KT CAVOK TEMPO 2106/2109 VRB03KT 6000 SCT025

Weather observations and forecasts of more than 4000 airports (METAR and TAF reports).

The available stations are represented by yellow and red dots on the map.

Hover mouse over dot to see the name of the station.

Then click to see weather observations and forecasts.

To change the map : click on the green buttons with a black cross to zoom in, on the green button with a dash to zoom out, or on the green arrows for adjacent maps.


METAR-TAF: